Time;durP1;ratioP1;P1;durP2;ratioP2;P2;SDS_P1;SDS_P2;PMS_P1;PMS_P2;Temp;Humidity;BMP_temperature;BMP_pressure;BME280_temperature;BME280_humidity;BME280_pressure;Samples;Min_cycle;Max_cycle;Signal;HPM_P1;HPM_P2
2021/11/18 00:00:50;;;;;;;12.85;5.93;;;;;;;3.73;100.00;99447.31;4158207;28;20176;-72
2021/11/18 00:02:51;;;;;;;11.75;5.90;;;;;;;3.72;100.00;99449.19;4155841;28;20624;-72
2021/11/18 00:04:54;;;;;;;10.65;6.05;;;;;;;3.80;100.00;99455.88;4159477;28;20045;-72
2021/11/18 00:06:55;;;;;;;10.02;5.72;;;;;;;3.75;100.00;99445.84;4155454;28;20041;-72
2021/11/18 00:08:55;;;;;;;9.80;5.72;;;;;;;3.74;100.00;99449.72;4157729;28;20041;-72
2021/11/18 00:10:58;;;;;;;7.85;5.50;;;;;;;3.74;100.00;99446.19;4154679;28;20072;-72
2021/11/18 00:13:02;;;;;;;8.30;5.00;;;;;;;3.74;100.00;99457.94;4153349;28;20053;-72
2021/11/18 00:15:03;;;;;;;10.85;5.05;;;;;;;3.74;100.00;99448.91;4153936;28;20128;-72
2021/11/18 00:17:03;;;;;;;7.43;4.93;;;;;;;3.69;100.00;99457.22;4155091;28;20462;-72
2021/11/18 00:19:05;;;;;;;6.20;4.53;;;;;;;3.62;99.57;99452.97;4154811;28;20386;-72
2021/11/18 00:21:07;;;;;;;9.32;4.75;;;;;;;3.65;100.00;99449.66;4152914;28;20478;-72
2021/11/18 00:23:08;;;;;;;7.20;4.53;;;;;;;3.63;100.00;99454.59;4155384;28;20041;-72
2021/11/18 00:25:09;;;;;;;9.13;4.38;;;;;;;3.56;100.00;99461.63;4153012;28;20076;-72
2021/11/18 00:27:09;;;;;;;8.10;4.70;;;;;;;3.56;100.00;99451.50;4153340;28;20037;-72
2021/11/18 00:29:09;;;;;;;11.00;4.80;;;;;;;3.53;100.00;99443.06;4159847;28;20213;-72
2021/11/18 00:31:13;;;;;;;6.97;4.75;;;;;;;3.55;99.86;99455.31;4156809;28;20539;-72
2021/11/18 00:33:14;;;;;;;7.75;4.28;;;;;;;3.64;100.00;99453.50;4152313;28;20132;-72
2021/11/18 00:35:17;;;;;;;7.97;4.60;;;;;;;3.62;99.50;99452.97;4154111;28;20454;-72
2021/11/18 00:37:17;;;;;;;7.28;4.40;;;;;;;3.63;99.51;99451.06;4157242;28;20037;-72
2021/11/18 00:39:18;;;;;;;8.55;4.57;;;;;;;3.58;99.68;99454.72;4155612;28;20044;-72
2021/11/18 00:41:20;;;;;;;9.00;4.78;;;;;;;3.58;99.10;99454.72;4155377;28;20049;-72
2021/11/18 00:43:21;;;;;;;9.75;4.50;;;;;;;3.54;99.40;99463.84;4153361;28;20045;-72
2021/11/18 00:45:25;;;;;;;6.95;4.90;;;;;;;3.58;99.82;99471.16;4153968;28;20209;-72
2021/11/18 00:47:25;;;;;;;5.85;3.65;;;;;;;3.53;99.15;99479.47;4153867;28;20107;-72
2021/11/18 00:49:26;;;;;;;9.07;4.45;;;;;;;3.49;99.33;99467.53;4159479;28;20049;-72
2021/11/18 00:51:26;;;;;;;6.88;4.25;;;;;;;3.43;99.47;99476.94;4154499;28;20073;-72
2021/11/18 00:53:27;;;;;;;8.32;3.97;;;;;;;3.34;99.61;99479.59;4153545;28;20042;-72
2021/11/18 00:55:30;;;;;;;7.13;3.90;;;;;;;3.28;99.96;99489.03;4154610;28;20049;-72
2021/11/18 00:57:30;;;;;;;7.13;4.13;;;;;;;3.20;100.00;99484.25;4153677;28;20045;-72
2021/11/18 00:59:31;;;;;;;7.38;3.90;;;;;;;3.13;100.00;99478.38;4153760;28;20076;-72
2021/11/18 01:01:35;;;;;;;6.65;4.30;;;;;;;3.10;100.00;99479.81;4153778;28;20063;-72
2021/11/18 01:03:36;;;;;;;6.30;4.05;;;;;;;3.06;100.00;99489.75;4155555;28;20470;-72
2021/11/18 01:05:41;;;;;;;6.15;4.03;;;;;;;3.02;100.00;99483.25;4153726;28;20137;-72
2021/11/18 01:07:41;;;;;;;5.35;3.95;;;;;;;2.99;100.00;99491.28;4153683;28;20056;-72
2021/11/18 01:09:42;;;;;;;7.88;3.67;;;;;;;2.95;100.00;99501.97;4154735;28;20042;-72
2021/11/18 01:11:42;;;;;;;5.68;3.83;;;;;;;2.90;100.00;99493.09;4157559;28;20041;-72
2021/11/18 01:13:43;;;;;;;8.18;4.18;;;;;;;2.86;100.00;99508.47;4154778;28;20310;-72
2021/11/18 01:15:45;;;;;;;7.07;4.57;;;;;;;2.79;100.00;99503.38;4158626;28;20044;-72
2021/11/18 01:17:46;;;;;;;10.25;4.85;;;;;;;2.76;100.00;99510.28;4156769;28;20073;-72
2021/11/18 01:19:46;;;;;;;7.07;4.78;;;;;;;2.73;100.00;99497.22;4157893;28;20384;-72
2021/11/18 01:21:49;;;;;;;6.97;4.25;;;;;;;2.72;100.00;99503.78;4159212;28;20114;-72
2021/11/18 01:23:50;;;;;;;7.97;5.07;;;;;;;2.72;100.00;99501.03;4157614;28;20071;-72
2021/11/18 01:25:50;;;;;;;7.65;4.57;;;;;;;2.82;100.00;99516.47;4157047;28;20056;-72
2021/11/18 01:27:51;;;;;;;7.65;4.60;;;;;;;2.79;100.00;99498.72;4159445;28;20136;-72
2021/11/18 01:29:53;;;;;;;8.00;4.72;;;;;;;2.81;100.00;99502.00;4156129;28;20045;-72
2021/11/18 01:31:53;;;;;;;9.85;5.50;;;;;;;2.82;100.00;99505.53;4157959;28;20121;-72
2021/11/18 01:33:54;;;;;;;7.20;4.75;;;;;;;2.81;100.00;99504.72;4157325;28;20512;-72
2021/11/18 01:35:56;;;;;;;8.30;4.88;;;;;;;2.87;100.00;99519.09;4155952;28;20401;-72
2021/11/18 01:37:57;;;;;;;8.52;4.95;;;;;;;2.85;100.00;99518.59;4156331;28;20080;-72
2021/11/18 01:39:57;;;;;;;10.55;5.30;;;;;;;2.83;100.00;99515.34;4157298;28;20335;-72
2021/11/18 01:41:57;;;;;;;8.73;5.25;;;;;;;2.82;100.00;99513.72;4156995;28;20128;-72
2021/11/18 01:44:01;;;;;;;11.82;6.20;;;;;;;2.94;100.00;99524.16;4156333;28;20563;-72
2021/11/18 01:46:06;;;;;;;10.15;5.72;;;;;;;2.95;100.00;99517.56;4157641;28;20244;-72
2021/11/18 01:48:07;;;;;;;10.82;5.85;;;;;;;2.93;100.00;99520.63;4160630;28;20029;-72
2021/11/18 01:50:11;;;;;;;11.80;5.65;;;;;;;2.91;100.00;99525.59;4156621;28;20060;-72
2021/11/18 01:52:16;;;;;;;12.10;6.68;;;;;;;2.90;100.00;99526.69;4156775;28;20029;-72
2021/11/18 01:54:19;;;;;;;9.60;5.35;;;;;;;2.86;100.00;99536.59;4163664;28;20083;-72
2021/11/18 01:56:26;;;;;;;9.70;5.28;;;;;;;2.81;100.00;99540.25;4155955;28;20425;-72
2021/11/18 01:58:26;;;;;;;12.32;6.60;;;;;;;2.75;100.00;99543.38;4158079;28;20050;-72
2021/11/18 02:00:29;;;;;;;10.77;5.38;;;;;;;2.73;100.00;99546.41;4156421;28;20065;-72
2021/11/18 02:02:29;;;;;;;13.68;6.20;;;;;;;2.70;100.00;99548.91;4159511;28;20638;-72
2021/11/18 02:04:31;;;;;;;13.10;6.05;;;;;;;2.66;100.00;99548.72;4155819;28;20501;-72
2021/11/18 02:06:34;;;;;;;9.35;5.30;;;;;;;2.64;100.00;99539.19;4156473;28;20385;-72
2021/11/18 02:08:35;;;;;;;10.57;6.18;;;;;;;2.62;100.00;99539.47;4156543;28;20107;-72
2021/11/18 02:10:40;;;;;;;10.00;5.55;;;;;;;2.60;100.00;99541.72;4156512;28;20416;-72
2021/11/18 02:12:41;;;;;;;10.60;6.28;;;;;;;2.61;100.00;99545.25;4157761;28;20041;-72
2021/11/18 02:14:41;;;;;;;9.45;5.82;;;;;;;2.57;100.00;99544.25;4155519;28;20048;-72
2021/11/18 02:16:44;;;;;;;12.93;5.60;;;;;;;2.58;100.00;99552.13;4156315;28;20045;-72
2021/11/18 02:18:44;;;;;;;9.57;6.32;;;;;;;2.57;100.00;99555.97;4155904;28;20040;-72
2021/11/18 02:20:46;;;;;;;14.23;6.75;;;;;;;2.56;100.00;99539.88;4156627;28;20531;-72
2021/11/18 02:22:46;;;;;;;13.85;6.80;;;;;;;2.55;100.00;99544.53;4155334;28;20037;-72
2021/11/18 02:24:50;;;;;;;15.10;7.00;;;;;;;2.55;100.00;99544.53;4155148;28;20615;-72
2021/11/18 02:26:51;;;;;;;14.35;6.70;;;;;;;2.56;100.00;99554.34;4156498;28;20045;-72
2021/11/18 02:28:54;;;;;;;13.00;6.97;;;;;;;2.58;100.00;99552.13;4155553;28;20394;-72
2021/11/18 02:30:58;;;;;;;14.55;6.85;;;;;;;2.52;100.00;99561.53;4158135;28;20037;-72
2021/11/18 02:32:58;;;;;;;13.57;6.95;;;;;;;2.55;100.00;99558.19;4160373;28;20502;-72
2021/11/18 02:35:04;;;;;;;13.43;6.30;;;;;;;2.54;100.00;99562.03;4155902;28;20041;-72
2021/11/18 02:37:04;;;;;;;17.40;7.53;;;;;;;2.51;100.00;99555.25;4156374;28;20099;-72
2021/11/18 02:39:06;;;;;;;13.70;6.63;;;;;;;2.51;100.00;99562.63;4160681;28;20623;-72
2021/11/18 02:41:10;;;;;;;13.65;7.15;;;;;;;2.51;100.00;99565.38;4155054;28;20045;-72
2021/11/18 02:43:15;;;;;;;12.82;7.25;;;;;;;2.50;100.00;99561.00;4155419;28;20049;-72
2021/11/18 02:45:24;;;;;;;14.77;6.38;;;;;;;2.54;100.00;99560.09;4158412;28;20037;-72
2021/11/18 02:47:24;;;;;;;11.93;5.93;;;;;;;2.53;100.00;99561.22;4159674;28;20048;-72
2021/11/18 02:49:25;;;;;;;13.25;7.10;;;;;;;2.56;100.00;99562.53;4154747;28;20038;-72
2021/11/18 02:51:25;;;;;;;12.45;6.35;;;;;;;2.56;100.00;99565.25;4155795;28;20135;-72
2021/11/18 02:53:28;;;;;;;14.85;7.05;;;;;;;2.66;100.00;99567.84;4155091;28;20469;-72
2021/11/18 02:55:36;;;;;;;18.52;6.38;;;;;;;2.73;100.00;99570.16;4154948;28;20481;-72
2021/11/18 02:57:36;;;;;;;14.82;7.30;;;;;;;2.68;100.00;99559.34;4156440;28;20099;-72
2021/11/18 02:59:37;;;;;;;14.35;7.80;;;;;;;2.73;100.00;99562.81;4156216;28;20041;-72
2021/11/18 03:01:43;;;;;;;11.73;6.95;;;;;;;2.68;100.00;99565.63;4155970;28;20061;-72
2021/11/18 03:03:44;;;;;;;13.95;7.50;;;;;;;2.72;100.00;99563.91;4158378;28;20046;-72
2021/11/18 03:05:46;;;;;;;15.52;6.70;;;;;;;2.72;100.00;99566.63;4156286;28;20370;-72
2021/11/18 03:07:47;;;;;;;15.48;7.25;;;;;;;2.76;100.00;99567.66;4155114;28;20048;-72
2021/11/18 03:09:47;;;;;;;14.82;7.22;;;;;;;2.77;100.00;99572.00;4160555;28;20053;-72
2021/11/18 03:11:47;;;;;;;12.63;6.75;;;;;;;2.80;100.00;99565.13;4155216;28;20501;-72
2021/11/18 03:13:48;;;;;;;12.88;6.63;;;;;;;2.81;100.00;99555.81;4155298;28;20049;-72
2021/11/18 03:15:49;;;;;;;12.75;7.45;;;;;;;2.88;100.00;99558.97;4154962;28;20339;-72
2021/11/18 03:17:50;;;;;;;17.95;7.60;;;;;;;2.93;100.00;99564.34;4155671;28;20256;-72
2021/11/18 03:19:50;;;;;;;14.50;6.82;;;;;;;2.94;100.00;99570.63;4157302;28;20452;-72
2021/11/18 03:21:51;;;;;;;12.95;6.80;;;;;;;3.01;100.00;99560.13;4155448;28;20048;-72
2021/11/18 03:23:52;;;;;;;14.50;7.18;;;;;;;3.08;100.00;99576.94;4157810;28;20417;-72
2021/11/18 03:25:53;;;;;;;11.35;6.10;;;;;;;3.14;100.00;99572.97;4161183;28;20057;-72
2021/11/18 03:27:54;;;;;;;11.50;6.07;;;;;;;3.19;100.00;99572.91;4156085;28;20041;-72
2021/11/18 03:29:54;;;;;;;12.45;6.72;;;;;;;3.30;100.00;99584.44;4155323;28;20038;-72
2021/11/18 03:31:55;;;;;;;12.52;6.78;;;;;;;3.37;100.00;99582.13;4155486;28;20077;-72
2021/11/18 03:33:59;;;;;;;15.23;7.50;;;;;;;3.43;100.00;99578.19;4154445;28;20089;-72
2021/11/18 03:36:00;;;;;;;16.02;7.05;;;;;;;3.51;100.00;99580.22;4158708;28;20049;-72
2021/11/18 03:38:00;;;;;;;13.10;6.43;;;;;;;3.54;100.00;99582.31;4155802;28;20041;-72
2021/11/18 03:40:00;;;;;;;18.08;7.05;;;;;;;3.58;100.00;99577.88;4156437;28;20056;-72
2021/11/18 03:42:06;;;;;;;14.13;6.28;;;;;;;3.69;100.00;99566.72;4154786;28;20472;-72
2021/11/18 03:44:08;;;;;;;12.98;6.93;;;;;;;3.65;100.00;99564.59;4153608;28;20362;-72
2021/11/18 03:46:09;;;;;;;;;;;;;;;3.71;100.00;99561.72;4156887;28;20044;-72
2021/11/18 03:48:10;;;;;;;10.65;6.05;;;;;;;3.72;100.00;99555.94;4156406;28;20387;-72
2021/11/18 03:50:12;;;;;;;14.57;6.10;;;;;;;3.76;100.00;99562.44;4158138;28;20057;-72
2021/11/18 03:52:15;;;;;;;12.95;6.18;;;;;;;3.85;100.00;99574.28;4155113;28;20108;-72
2021/11/18 03:54:17;;;;;;;16.98;6.47;;;;;;;3.92;99.74;99574.69;4158567;28;20037;-72
2021/11/18 03:56:21;;;;;;;14.25;6.15;;;;;;;3.91;100.00;99572.25;4155938;28;20293;-72
2021/11/18 03:58:21;;;;;;;12.07;5.82;;;;;;;3.90;99.68;99585.13;4159700;28;20049;-72
2021/11/18 04:00:28;;;;;;;17.08;6.88;;;;;;;3.97;99.77;99575.69;4160276;28;20492;-72
2021/11/18 04:02:28;;;;;;;10.50;6.00;;;;;;;4.08;98.90;99577.09;4158142;28;20523;-72
2021/11/18 04:04:37;;;;;;;14.30;7.50;;;;;;;4.07;98.67;99575.47;4156342;28;20042;-72
2021/11/18 04:06:39;;;;;;;15.23;7.38;;;;;;;4.12;98.46;99578.88;4153599;28;20378;-72
2021/11/18 04:08:39;;;;;;;11.33;6.10;;;;;;;4.19;98.40;99570.25;4155782;28;20434;-72
2021/11/18 04:10:41;;;;;;;13.38;6.30;;;;;;;4.21;98.09;99571.56;4155430;28;20075;-72
2021/11/18 04:12:42;;;;;;;9.53;5.17;;;;;;;4.33;97.51;99576.50;4154187;28;20052;-72
2021/11/18 04:14:44;;;;;;;15.23;6.03;;;;;;;4.31;97.77;99572.47;4154033;28;20771;-72
2021/11/18 04:16:45;;;;;;;9.13;5.30;;;;;;;4.31;97.75;99577.94;4158817;28;20041;-72
2021/11/18 04:18:45;;;;;;;12.70;6.68;;;;;;;4.29;97.27;99574.69;4154587;28;20038;-72
2021/11/18 04:20:49;;;;;;;12.05;5.68;;;;;;;4.27;97.35;99568.72;4154385;28;20458;-72
2021/11/18 04:22:51;;;;;;;11.95;6.05;;;;;;;4.34;97.42;99580.84;4155856;28;20213;-72
2021/11/18 04:24:51;;;;;;;10.75;6.05;;;;;;;4.40;97.13;99590.59;4158009;28;20128;-72
2021/11/18 04:26:52;;;;;;;13.35;6.72;;;;;;;4.38;96.59;99587.31;4153681;28;20072;-72
2021/11/18 04:28:53;;;;;;;10.18;6.38;;;;;;;4.41;96.90;99594.94;4156929;28;20037;-72
2021/11/18 04:31:04;;;;;;;14.35;7.03;;;;;;;4.42;96.53;99596.56;4154699;28;20049;-72
2021/11/18 04:33:04;;;;;;;17.80;6.80;;;;;;;4.39;96.57;99593.63;4154164;28;20045;-72
2021/11/18 04:35:06;;;;;;;12.55;6.13;;;;;;;4.42;96.81;99588.34;4153656;28;20482;-72
2021/11/18 04:37:07;;;;;;;13.47;6.83;;;;;;;4.56;95.37;99592.97;4155116;28;20048;-72
2021/11/18 04:39:08;;;;;;;13.38;7.13;;;;;;;4.50;96.42;99578.56;4154300;28;20037;-72
2021/11/18 04:41:10;;;;;;;16.13;7.72;;;;;;;4.47;95.99;99587.41;4153895;28;20037;-72
2021/11/18 04:43:10;;;;;;;14.43;6.97;;;;;;;4.47;96.35;99580.00;4155030;28;20042;-72
2021/11/18 04:45:14;;;;;;;13.95;7.38;;;;;;;4.47;96.88;99585.50;4155281;28;20045;-72
2021/11/18 04:47:14;;;;;;;17.73;7.38;;;;;;;4.51;95.92;99585.66;4153934;28;20119;-72
2021/11/18 04:49:15;;;;;;;13.40;7.18;;;;;;;4.47;96.42;99580.00;4153291;28;20091;-72
2021/11/18 04:51:17;;;;;;;12.57;7.18;;;;;;;4.50;96.74;99586.78;4155130;28;20641;-72
2021/11/18 04:53:19;;;;;;;12.85;6.35;;;;;;;4.55;95.28;99583.94;4157279;28;20037;-72
2021/11/18 04:55:22;;;;;;;14.57;6.22;;;;;;;4.56;95.57;99584.75;4158058;28;20453;-72
2021/11/18 04:57:28;;;;;;;26.98;7.38;;;;;;;4.62;94.91;99584.28;4157236;28;20049;-72
2021/11/18 04:59:28;;;;;;;12.00;6.28;;;;;;;4.64;95.38;99579.31;4158458;28;20128;-72
2021/11/18 05:01:29;;;;;;;12.45;5.13;;;;;;;4.61;95.53;99562.66;4157202;28;20497;-72
2021/11/18 05:03:30;;;;;;;14.15;7.68;;;;;;;4.61;94.85;99565.41;4157423;28;20046;-72
2021/11/18 05:05:31;;;;;;;13.55;7.60;;;;;;;4.64;94.71;99562.06;4158463;28;20045;-72
2021/11/18 05:07:32;;;;;;;15.27;7.32;;;;;;;4.64;94.36;99564.81;4158620;28;20038;-72
2021/11/18 05:09:32;;;;;;;20.45;8.70;;;;;;;4.61;95.35;99565.41;4161275;28;20463;-73
2021/11/18 05:11:33;;;;;;;13.48;9.63;;;;;;;4.59;95.25;99576.69;4158215;28;20041;-72
2021/11/18 05:13:35;;;;;;;20.75;12.65;;;;;;;4.54;95.27;99576.81;4157355;28;20222;-72
2021/11/18 05:15:38;;;;;;;20.70;12.60;;;;;;;4.49;95.46;99569.53;4156837;28;20053;-72
2021/11/18 05:17:39;;;;;;;18.58;9.93;;;;;;;4.46;95.52;99572.88;4157232;28;20517;-72
2021/11/18 05:19:39;;;;;;;15.20;9.63;;;;;;;4.48;95.95;99580.81;4158055;28;20139;-72
2021/11/18 05:21:41;;;;;;;30.30;17.75;;;;;;;4.52;95.38;99587.28;4160981;28;20200;-72
2021/11/18 05:23:43;;;;;;;39.45;22.65;;;;;;;4.50;95.19;99592.28;4158726;28;20048;-72
2021/11/18 05:25:44;;;;;;;34.83;25.15;;;;;;;4.47;94.65;99585.50;4160301;28;20481;-72
2021/11/18 05:27:44;;;;;;;33.85;21.95;;;;;;;4.45;95.43;99584.97;4161598;28;20354;-72
2021/11/18 05:29:45;;;;;;;33.40;20.33;;;;;;;4.47;94.81;99593.72;4158128;28;20044;-72
2021/11/18 05:31:45;;;;;;;26.65;16.55;;;;;;;4.47;94.54;99592.91;4158985;28;20041;-72
2021/11/18 05:33:46;;;;;;;20.13;12.43;;;;;;;4.45;94.50;99595.94;4157623;28;20030;-72
2021/11/18 05:35:47;;;;;;;20.08;10.60;;;;;;;4.45;95.12;99597.84;4161079;28;20040;-72
2021/11/18 05:37:51;;;;;;;15.68;8.43;;;;;;;4.47;94.90;99596.44;4159448;28;20362;-72
2021/11/18 05:39:52;;;;;;;18.40;9.18;;;;;;;4.37;95.10;99588.44;4160659;28;20125;-72
2021/11/18 05:41:52;;;;;;;19.92;9.68;;;;;;;4.38;95.19;99598.28;4161449;28;20052;-72
2021/11/18 05:43:53;;;;;;;18.17;7.88;;;;;;;4.39;95.19;99604.59;4156609;28;20037;-72
2021/11/18 05:45:53;;;;;;;18.67;9.38;;;;;;;4.36;94.97;99596.97;4158587;28;20037;-72
2021/11/18 05:47:54;;;;;;;13.68;8.10;;;;;;;4.35;95.43;99596.19;4161327;28;20042;-72
2021/11/18 05:49:55;;;;;;;15.35;8.00;;;;;;;4.29;95.10;99591.94;4155678;28;20633;-72
2021/11/18 05:51:55;;;;;;;13.50;6.40;;;;;;;4.29;95.74;99591.94;4158818;28;20056;-72
2021/11/18 05:53:55;;;;;;;14.52;6.88;;;;;;;4.32;95.29;99591.31;4159580;28;20481;-72
2021/11/18 05:55:58;;;;;;;16.42;6.57;;;;;;;4.30;95.71;99593.53;4157568;28;20053;-72
2021/11/18 05:57:59;;;;;;;14.95;7.20;;;;;;;4.34;95.27;99597.31;4157704;28;20056;-72
2021/11/18 06:00:00;;;;;;;18.52;7.60;;;;;;;4.43;94.84;99602.84;4157853;28;20041;-72
2021/11/18 06:02:00;;;;;;;16.05;7.60;;;;;;;4.45;94.37;99609.63;4158852;28;20045;-72
2021/11/18 06:04:01;;;;;;;13.75;7.32;;;;;;;4.51;94.19;99613.88;4156403;28;20029;-72
2021/11/18 06:06:03;;;;;;;14.13;6.85;;;;;;;4.53;93.82;99612.75;4158632;28;20033;-72
2021/11/18 06:08:03;;;;;;;14.82;6.93;;;;;;;4.42;94.22;99614.94;4157729;28;20025;-72
2021/11/18 06:10:05;;;;;;;12.70;6.70;;;;;;;4.42;94.81;99623.16;4159196;28;20035;-72
2021/11/18 06:12:09;;;;;;;16.45;7.10;;;;;;;4.49;94.08;99624.34;4158711;28;20034;-72
2021/11/18 06:14:10;;;;;;;15.40;7.20;;;;;;;4.51;93.71;99635.00;4159830;28;20032;-72
2021/11/18 06:16:10;;;;;;;12.70;6.43;;;;;;;4.46;93.77;99638.66;4158280;28;20017;-72
2021/11/18 06:18:11;;;;;;;16.38;7.43;;;;;;;4.40;94.35;99637.16;4157719;28;20025;-72
2021/11/18 06:20:14;;;;;;;21.30;7.68;;;;;;;4.31;95.18;99636.28;4158737;28;20028;-72
2021/11/18 06:22:17;;;;;;;14.23;7.07;;;;;;;4.28;94.60;99638.81;4161800;28;20018;-72
2021/11/18 06:24:18;;;;;;;14.63;7.22;;;;;;;4.27;94.80;99629.78;4154743;28;20033;-72
2021/11/18 06:26:18;;;;;;;11.13;6.80;;;;;;;4.23;94.72;99647.97;4155887;28;20025;-72
2021/11/18 06:28:19;;;;;;;12.60;7.00;;;;;;;4.17;95.82;99644.53;4156013;28;20036;-72
2021/11/18 06:30:28;;;;;;;18.08;7.85;;;;;;;4.06;96.67;99637.66;4157271;28;20409;-72
2021/11/18 06:32:28;;;;;;;23.55;11.32;;;;;;;4.04;96.52;99630.84;4160956;28;20048;-72
2021/11/18 06:34:30;;;;;;;18.02;9.38;;;;;;;3.98;96.80;99630.16;4160969;28;20049;-72
2021/11/18 06:36:30;;;;;;;18.17;8.80;;;;;;;3.95;97.07;99625.28;4157833;28;20444;-72
2021/11/18 06:38:31;;;;;;;14.93;6.90;;;;;;;4.00;97.21;99638.06;4154925;28;20168;-72
2021/11/18 06:40:31;;;;;;;13.85;7.30;;;;;;;4.02;96.80;99647.59;4157845;28;20038;-72
2021/11/18 06:42:32;;;;;;;14.07;7.47;;;;;;;4.03;96.74;99643.72;4155894;28;20046;-72
2021/11/18 06:44:33;;;;;;;13.90;7.25;;;;;;;4.07;96.53;99636.53;4156081;28;20061;-72
2021/11/18 06:46:34;;;;;;;15.50;7.15;;;;;;;4.16;95.58;99645.66;4155520;28;20451;-72
2021/11/18 06:48:35;;;;;;;14.05;6.35;;;;;;;4.19;95.04;99633.25;4156752;28;20301;-72
2021/11/18 06:50:35;;;;;;;12.60;6.47;;;;;;;4.22;94.87;99643.63;4156605;28;20439;-72
2021/11/18 06:52:36;;;;;;;18.15;7.75;;;;;;;4.24;94.94;99641.38;4155007;28;20056;-72
2021/11/18 06:54:37;;;;;;;17.17;7.40;;;;;;;4.24;94.42;99638.63;4157982;28;20037;-72
2021/11/18 06:56:38;;;;;;;17.52;7.97;;;;;;;4.26;94.52;99643.78;4156351;28;20138;-72
2021/11/18 06:58:39;;;;;;;12.00;7.25;;;;;;;4.24;94.49;99644.09;4155140;28;20081;-72
2021/11/18 07:00:39;;;;;;;14.55;7.65;;;;;;;4.20;94.49;99645.81;4155598;28;20139;-72
2021/11/18 07:02:40;;;;;;;21.23;9.23;;;;;;;4.19;95.17;99653.25;4156497;28;20509;-72
2021/11/18 07:04:40;;;;;;;20.63;8.13;;;;;;;4.18;95.08;99654.34;4155566;28;20065;-72
2021/11/18 07:06:40;;;;;;;14.20;6.70;;;;;;;4.19;94.41;99655.97;4154682;28;20052;-72
2021/11/18 07:08:41;;;;;;;14.32;7.10;;;;;;;4.14;94.46;99652.56;4156503;28;20041;-72
2021/11/18 07:10:43;;;;;;;18.30;7.07;;;;;;;4.05;94.93;99662.59;4157045;28;20358;-72
2021/11/18 07:12:44;;;;;;;18.17;8.63;;;;;;;3.97;95.62;99660.56;4154753;28;20044;-72
2021/11/18 07:14:46;;;;;;;14.20;8.30;;;;;;;3.90;96.60;99659.06;4155057;28;20044;-72
2021/11/18 07:16:46;;;;;;;12.88;7.47;;;;;;;3.82;96.73;99668.00;4156060;28;20050;-72
2021/11/18 07:18:47;;;;;;;15.85;7.47;;;;;;;3.83;97.17;99661.41;4155421;28;20042;-72
2021/11/18 07:20:48;;;;;;;20.35;7.45;;;;;;;3.85;97.57;99664.63;4154216;28;20057;-72
2021/11/18 07:22:48;;;;;;;12.38;6.18;;;;;;;3.91;96.97;99670.84;4156133;28;20045;-72
2021/11/18 07:24:51;;;;;;;12.93;6.03;;;;;;;3.92;96.23;99672.44;4155414;28;20894;-72
2021/11/18 07:26:51;;;;;;;16.27;7.32;;;;;;;4.00;95.85;99671.72;4154608;28;20049;-72
2021/11/18 07:28:52;;;;;;;19.45;6.95;;;;;;;4.02;95.73;99672.22;4155834;28;20820;-72
2021/11/18 07:30:54;;;;;;;15.85;6.38;;;;;;;4.00;95.76;99669.00;4156019;28;20041;-72
2021/11/18 07:32:54;;;;;;;13.93;6.47;;;;;;;3.98;95.89;99679.44;4155421;28;20045;-72
2021/11/18 07:34:55;;;;;;;15.20;6.65;;;;;;;3.99;95.89;99685.72;4157307;28;20420;-72
2021/11/18 07:36:55;;;;;;;14.65;6.60;;;;;;;4.07;95.66;99674.88;4156904;28;20048;-72
2021/11/18 07:38:56;;;;;;;11.20;5.78;;;;;;;4.10;94.67;99679.72;4160137;28;20525;-72
2021/11/18 07:40:56;;;;;;;15.45;6.22;;;;;;;4.15;95.14;99689.78;4155155;28;20136;-72
2021/11/18 07:42:56;;;;;;;13.65;6.68;;;;;;;4.18;94.28;99695.44;4157718;28;20112;-72
2021/11/18 07:44:57;;;;;;;16.15;6.65;;;;;;;4.12;95.10;99698.59;4158395;28;20045;-72
2021/11/18 07:46:57;;;;;;;17.20;8.25;;;;;;;4.08;95.51;99694.84;4160018;28;20056;-72
2021/11/18 07:48:58;;;;;;;19.25;10.25;;;;;;;4.06;95.28;99705.31;4153834;28;20108;-72
2021/11/18 07:51:00;;;;;;;12.38;7.03;;;;;;;4.05;95.45;99712.69;4157392;28;20033;-72
2021/11/18 07:53:01;;;;;;;12.55;6.97;;;;;;;4.05;95.53;99709.94;4154540;28;20097;-72
2021/11/18 07:55:04;;;;;;;11.45;6.10;;;;;;;4.15;95.69;99712.50;4153762;28;20046;-72
2021/11/18 07:57:04;;;;;;;17.77;6.35;;;;;;;4.17;94.94;99703.97;4160956;28;20049;-72
2021/11/18 07:59:05;;;;;;;15.13;6.40;;;;;;;4.20;94.93;99706.91;4154100;28;20483;-72
2021/11/18 08:01:06;;;;;;;18.27;6.22;;;;;;;4.20;95.12;99701.41;4157762;28;20468;-72
2021/11/18 08:03:08;;;;;;;9.50;5.95;;;;;;;4.25;95.42;99700.53;4154723;28;20048;-72
2021/11/18 08:05:09;;;;;;;17.05;6.75;;;;;;;4.27;95.13;99690.06;4155349;28;20041;-72
2021/11/18 08:07:09;;;;;;;11.52;7.20;;;;;;;4.30;95.09;99688.63;4154191;28;20380;-72
2021/11/18 08:09:10;;;;;;;13.65;6.45;;;;;;;4.34;95.26;99684.97;4155072;28;20038;-72
2021/11/18 08:11:24;;;;;;;11.25;5.82;;;;;;;4.42;94.87;99687.00;4155813;28;20392;-72
2021/11/18 08:13:25;;;;;;;13.93;6.03;;;;;;;4.47;94.90;99683.34;4154467;28;20042;-72
2021/11/18 08:15:26;;;;;;;12.85;6.90;;;;;;;4.55;94.58;99684.50;4154127;28;20462;-72
2021/11/18 08:17:26;;;;;;;13.23;6.68;;;;;;;4.60;95.31;99676.19;4154382;28;20448;-72
2021/11/18 08:19:27;;;;;;;13.00;6.30;;;;;;;4.78;94.75;99683.44;4155709;28;20056;-72
2021/11/18 08:21:27;;;;;;;13.63;6.18;;;;;;;4.85;94.20;99669.28;4157171;28;20053;-72
2021/11/18 08:23:32;;;;;;;13.43;6.50;;;;;;;5.00;93.04;99677.97;4154318;28;20143;-72
2021/11/18 08:25:35;;;;;;;13.57;6.80;;;;;;;5.15;92.43;99687.75;4158692;28;20040;-72
2021/11/18 08:27:35;;;;;;;14.15;6.88;;;;;;;5.19;92.51;99685.97;4159266;28;20049;-72
2021/11/18 08:29:36;;;;;;;15.82;6.47;;;;;;;5.26;92.25;99680.88;4159589;28;20129;-72
2021/11/18 08:31:39;;;;;;;11.30;6.05;;;;;;;5.36;91.13;99688.84;4160878;28;20068;-72
2021/11/18 08:33:41;;;;;;;16.50;6.85;;;;;;;5.53;90.24;99690.88;4164846;28;20148;-72
2021/11/18 08:35:42;;;;;;;15.45;6.75;;;;;;;5.64;89.28;99699.66;4162725;28;20045;-72
2021/11/18 08:37:43;;;;;;;9.20;5.05;;;;;;;5.79;87.98;99696.50;4160385;28;20117;-72
2021/11/18 08:39:43;;;;;;;11.15;5.63;;;;;;;5.85;87.29;99691.66;4159866;28;20038;-72
2021/11/18 08:41:44;;;;;;;14.40;6.10;;;;;;;5.84;88.08;99699.09;4159403;28;20054;-72
2021/11/18 08:43:49;;;;;;;13.27;6.03;;;;;;;5.95;87.17;99693.34;4159711;28;20038;-72
2021/11/18 08:45:50;;;;;;;15.13;6.35;;;;;;;6.00;86.71;99699.50;4161580;28;20099;-72
2021/11/18 08:47:50;;;;;;;14.48;6.45;;;;;;;6.03;86.47;99698.88;4159890;28;20043;-72
2021/11/18 08:49:51;;;;;;;11.13;5.47;;;;;;;6.01;86.52;99701.13;4159820;28;20041;-72
2021/11/18 08:51:53;;;;;;;10.50;5.63;;;;;;;6.07;85.57;99704.53;4160847;28;20046;-72
2021/11/18 08:53:56;;;;;;;15.03;5.90;;;;;;;6.13;85.83;99701.34;4161760;28;20132;-72
2021/11/18 08:55:57;;;;;;;14.68;5.75;;;;;;;6.24;84.17;99699.09;4158838;28;20343;-72
2021/11/18 08:57:57;;;;;;;13.02;6.13;;;;;;;6.23;84.88;99696.69;4159955;28;20037;-72
2021/11/18 08:59:58;;;;;;;14.13;5.70;;;;;;;6.23;84.41;99696.69;4160028;28;20128;-72
2021/11/18 09:02:08;;;;;;;12.27;6.68;;;;;;;6.22;84.83;99706.84;4159640;28;20049;-72
2021/11/18 09:04:13;;;;;;;11.75;5.88;;;;;;;6.26;84.01;99709.78;4160596;28;20471;-72
2021/11/18 09:06:16;;;;;;;12.30;5.00;;;;;;;6.28;83.14;99710.25;4162652;28;20129;-72
2021/11/18 09:08:18;;;;;;;16.70;6.15;;;;;;;6.34;83.56;99715.28;4160566;28;20057;-72
2021/11/18 09:10:19;;;;;;;13.70;6.47;;;;;;;6.37;83.08;99719.31;4158917;28;20033;-72
2021/11/18 09:12:21;;;;;;;17.60;6.43;;;;;;;6.33;84.29;99721.91;4159451;28;20321;-72
2021/11/18 09:14:23;;;;;;;10.50;6.10;;;;;;;6.40;83.17;99729.69;4160903;28;20755;-72
2021/11/18 09:16:24;;;;;;;16.75;6.97;;;;;;;6.42;83.08;99732.94;4159221;28;20088;-72
2021/11/18 09:18:25;;;;;;;16.63;6.32;;;;;;;6.42;83.58;99735.69;4158923;28;20370;-72
2021/11/18 09:20:28;;;;;;;17.65;8.02;;;;;;;6.43;83.68;99734.53;4159013;28;20046;-72
2021/11/18 09:22:28;;;;;;;18.20;8.10;;;;;;;6.39;84.49;99739.88;4166171;28;20046;-72
2021/11/18 09:24:32;;;;;;;16.33;7.55;;;;;;;6.37;85.14;99744.06;4157887;28;20485;-72
2021/11/18 09:26:37;;;;;;;12.70;6.65;;;;;;;6.38;84.00;99757.50;4164968;28;20045;-72
2021/11/18 09:28:38;;;;;;;15.70;5.70;;;;;;;6.45;83.59;99762.53;4167972;28;20041;-72
2021/11/18 09:30:44;;;;;;;12.63;6.43;;;;;;;6.45;83.70;99760.63;4161424;28;20084;-72